sensor_id;sensor_type;location;lat;lon;timestamp;pressure;altitude;pressure_sealevel;temperature
62611;BMP280;48683;48.084;17.272;2023-05-07T00:01:48;100383.34;;;15.34
62611;BMP280;48683;48.084;17.272;2023-05-07T00:04:14;100382.16;;;15.35
62611;BMP280;48683;48.084;17.272;2023-05-07T00:06:39;100365.28;;;15.28
62611;BMP280;48683;48.084;17.272;2023-05-07T00:09:06;100378.06;;;15.27
62611;BMP280;48683;48.084;17.272;2023-05-07T00:11:31;100381.00;;;15.13
62611;BMP280;48683;48.084;17.272;2023-05-07T00:13:57;100380.56;;;15.14
62611;BMP280;48683;48.084;17.272;2023-05-07T00:16:22;100368.34;;;15.06
62611;BMP280;48683;48.084;17.272;2023-05-07T00:18:47;100374.31;;;14.98
62611;BMP280;48683;48.084;17.272;2023-05-07T00:21:13;100383.22;;;14.95
62611;BMP280;48683;48.084;17.272;2023-05-07T00:23:38;100375.72;;;14.79
62611;BMP280;48683;48.084;17.272;2023-05-07T00:26:04;100382.66;;;14.80
62611;BMP280;48683;48.084;17.272;2023-05-07T00:28:29;100380.41;;;14.75
62611;BMP280;48683;48.084;17.272;2023-05-07T00:30:55;100372.56;;;14.57
62611;BMP280;48683;48.084;17.272;2023-05-07T00:33:20;100367.63;;;14.52
62611;BMP280;48683;48.084;17.272;2023-05-07T00:35:46;100372.03;;;14.43
62611;BMP280;48683;48.084;17.272;2023-05-07T00:38:11;100373.78;;;14.22
62611;BMP280;48683;48.084;17.272;2023-05-07T00:40:37;100376.22;;;14.13
62611;BMP280;48683;48.084;17.272;2023-05-07T00:43:02;100368.94;;;14.10
62611;BMP280;48683;48.084;17.272;2023-05-07T00:45:28;100369.75;;;14.07
62611;BMP280;48683;48.084;17.272;2023-05-07T00:47:59;100373.13;;;14.15
62611;BMP280;48683;48.084;17.272;2023-05-07T00:50:26;100379.19;;;14.22
62611;BMP280;48683;48.084;17.272;2023-05-07T00:52:51;100379.19;;;14.22
62611;BMP280;48683;48.084;17.272;2023-05-07T00:55:17;100393.03;;;14.24
62611;BMP280;48683;48.084;17.272;2023-05-07T00:57:43;100389.63;;;14.20
62611;BMP280;48683;48.084;17.272;2023-05-07T01:00:29;100383.91;;;14.15
62611;BMP280;48683;48.084;17.272;2023-05-07T01:02:54;100381.78;;;13.99
62611;BMP280;48683;48.084;17.272;2023-05-07T01:05:20;100380.00;;;13.86
62611;BMP280;48683;48.084;17.272;2023-05-07T01:07:48;100381.63;;;13.79
62611;BMP280;48683;48.084;17.272;2023-05-07T01:10:14;100373.97;;;13.74
62611;BMP280;48683;48.084;17.272;2023-05-07T01:12:40;100381.25;;;13.77
62611;BMP280;48683;48.084;17.272;2023-05-07T01:15:07;100364.78;;;13.68
62611;BMP280;48683;48.084;17.272;2023-05-07T01:17:37;100383.56;;;13.79
62611;BMP280;48683;48.084;17.272;2023-05-07T01:20:04;100378.84;;;13.87
62611;BMP280;48683;48.084;17.272;2023-05-07T01:22:32;100375.84;;;13.77
62611;BMP280;48683;48.084;17.272;2023-05-07T01:24:58;100377.44;;;13.75
62611;BMP280;48683;48.084;17.272;2023-05-07T01:27:25;100371.00;;;13.65
62611;BMP280;48683;48.084;17.272;2023-05-07T01:29:50;100374.47;;;13.62
62611;BMP280;48683;48.084;17.272;2023-05-07T01:32:27;100369.53;;;13.57
62611;BMP280;48683;48.084;17.272;2023-05-07T01:34:54;100368.00;;;13.56
62611;BMP280;48683;48.084;17.272;2023-05-07T01:37:21;100363.00;;;13.55
62611;BMP280;48683;48.084;17.272;2023-05-07T01:39:47;100368.75;;;13.57
62611;BMP280;48683;48.084;17.272;2023-05-07T01:42:13;100376.56;;;13.48
62611;BMP280;48683;48.084;17.272;2023-05-07T01:44:38;100372.78;;;13.42
62611;BMP280;48683;48.084;17.272;2023-05-07T01:47:05;100377.81;;;13.36
62611;BMP280;48683;48.084;17.272;2023-05-07T01:49:31;100369.81;;;13.25
62611;BMP280;48683;48.084;17.272;2023-05-07T01:51:57;100380.25;;;13.20
62611;BMP280;48683;48.084;17.272;2023-05-07T01:54:26;100388.34;;;13.20
62611;BMP280;48683;48.084;17.272;2023-05-07T01:56:58;100385.59;;;13.30
62611;BMP280;48683;48.084;17.272;2023-05-07T01:59:24;100387.78;;;13.39
62611;BMP280;48683;48.084;17.272;2023-05-07T02:01:49;100393.97;;;13.40
62611;BMP280;48683;48.084;17.272;2023-05-07T02:04:34;100395.16;;;13.35
62611;BMP280;48683;48.084;17.272;2023-05-07T02:07:00;100386.84;;;13.19
62611;BMP280;48683;48.084;17.272;2023-05-07T02:09:25;100397.59;;;13.22
62611;BMP280;48683;48.084;17.272;2023-05-07T02:11:50;100394.19;;;13.15
62611;BMP280;48683;48.084;17.272;2023-05-07T02:14:16;100387.25;;;13.14
62611;BMP280;48683;48.084;17.272;2023-05-07T02:16:41;100394.53;;;13.17
62611;BMP280;48683;48.084;17.272;2023-05-07T02:19:07;100393.75;;;13.20
62611;BMP280;48683;48.084;17.272;2023-05-07T02:21:32;100393.72;;;13.23
62611;BMP280;48683;48.084;17.272;2023-05-07T02:23:57;100403.34;;;13.24
62611;BMP280;48683;48.084;17.272;2023-05-07T02:26:23;100394.09;;;13.25
62611;BMP280;48683;48.084;17.272;2023-05-07T02:28:48;100403.41;;;13.17
62611;BMP280;48683;48.084;17.272;2023-05-07T02:31:14;100405.28;;;13.20
62611;BMP280;48683;48.084;17.272;2023-05-07T02:33:39;100414.47;;;13.30
62611;BMP280;48683;48.084;17.272;2023-05-07T02:36:08;100416.03;;;13.24
62611;BMP280;48683;48.084;17.272;2023-05-07T02:38:34;100405.72;;;13.19
62611;BMP280;48683;48.084;17.272;2023-05-07T02:40:59;100401.53;;;13.11
62611;BMP280;48683;48.084;17.272;2023-05-07T02:43:25;100403.13;;;12.98
62611;BMP280;48683;48.084;17.272;2023-05-07T02:46:00;100404.34;;;12.90
62611;BMP280;48683;48.084;17.272;2023-05-07T02:48:26;100411.25;;;12.91
62611;BMP280;48683;48.084;17.272;2023-05-07T02:50:51;100404.38;;;12.86
62611;BMP280;48683;48.084;17.272;2023-05-07T02:53:17;100403.22;;;12.87
62611;BMP280;48683;48.084;17.272;2023-05-07T02:55:42;100412.03;;;12.91
62611;BMP280;48683;48.084;17.272;2023-05-07T02:58:07;100405.09;;;12.94
62611;BMP280;48683;48.084;17.272;2023-05-07T03:00:33;100398.88;;;13.00
62611;BMP280;48683;48.084;17.272;2023-05-07T03:02:58;100408.13;;;12.96
62611;BMP280;48683;48.084;17.272;2023-05-07T03:05:23;100404.34;;;12.90
62611;BMP280;48683;48.084;17.272;2023-05-07T03:07:49;100417.09;;;12.82
62611;BMP280;48683;48.084;17.272;2023-05-07T03:10:14;100409.03;;;12.78
62611;BMP280;48683;48.084;17.272;2023-05-07T03:12:40;100411.75;;;12.75
62611;BMP280;48683;48.084;17.272;2023-05-07T03:15:05;100406.38;;;12.75
62611;BMP280;48683;48.084;17.272;2023-05-07T03:17:31;100411.75;;;12.75
62611;BMP280;48683;48.084;17.272;2023-05-07T03:19:57;100418.69;;;12.76
62611;BMP280;48683;48.084;17.272;2023-05-07T03:22:22;100416.00;;;12.69
62611;BMP280;48683;48.084;17.272;2023-05-07T03:24:47;100417.16;;;12.71
62611;BMP280;48683;48.084;17.272;2023-05-07T03:27:13;100411.78;;;12.71
62611;BMP280;48683;48.084;17.272;2023-05-07T03:29:38;100423.31;;;12.68
62611;BMP280;48683;48.084;17.272;2023-05-07T03:32:04;100427.16;;;12.71
62611;BMP280;48683;48.084;17.272;2023-05-07T03:34:29;100413.75;;;12.64
62611;BMP280;48683;48.084;17.272;2023-05-07T03:36:54;100428.72;;;12.72
62611;BMP280;48683;48.084;17.272;2023-05-07T03:39:20;100439.78;;;12.81
62611;BMP280;48683;48.084;17.272;2023-05-07T03:41:46;100443.38;;;12.64
62611;BMP280;48683;48.084;17.272;2023-05-07T03:44:11;100451.47;;;12.53
62611;BMP280;48683;48.084;17.272;2023-05-07T03:46:36;100443.41;;;12.50
62611;BMP280;48683;48.084;17.272;2023-05-07T03:49:02;100454.59;;;12.48
62611;BMP280;48683;48.084;17.272;2023-05-07T03:51:27;100454.56;;;12.55
62611;BMP280;48683;48.084;17.272;2023-05-07T03:53:52;100460.69;;;12.63
62611;BMP280;48683;48.084;17.272;2023-05-07T03:56:19;100454.91;;;12.64
62611;BMP280;48683;48.084;17.272;2023-05-07T03:58:44;100461.78;;;12.69
62611;BMP280;48683;48.084;17.272;2023-05-07T04:01:10;100462.94;;;12.71
62611;BMP280;48683;48.084;17.272;2023-05-07T04:03:35;100473.72;;;12.71
62611;BMP280;48683;48.084;17.272;2023-05-07T04:06:01;100467.19;;;12.69
62611;BMP280;48683;48.084;17.272;2023-05-07T04:08:26;100467.50;;;12.81
62611;BMP280;48683;48.084;17.272;2023-05-07T04:10:58;100467.84;;;12.91
62611;BMP280;48683;48.084;17.272;2023-05-07T04:13:24;100469.75;;;12.94
62611;BMP280;48683;48.084;17.272;2023-05-07T04:15:51;100467.41;;;12.99
62611;BMP280;48683;48.084;17.272;2023-05-07T04:18:16;100475.03;;;13.11
62611;BMP280;48683;48.084;17.272;2023-05-07T04:20:41;100479.31;;;13.05
62611;BMP280;48683;48.084;17.272;2023-05-07T04:23:07;100477.44;;;12.95
62611;BMP280;48683;48.084;17.272;2023-05-07T04:25:33;100470.91;;;12.89
62611;BMP280;48683;48.084;17.272;2023-05-07T04:27:58;100477.47;;;12.84
62611;BMP280;48683;48.084;17.272;2023-05-07T04:30:24;100480.16;;;12.92
62611;BMP280;48683;48.084;17.272;2023-05-07T04:32:50;100479.75;;;12.93
62611;BMP280;48683;48.084;17.272;2023-05-07T04:35:15;100472.09;;;12.92
62611;BMP280;48683;48.084;17.272;2023-05-07T04:37:41;100471.66;;;12.97
62611;BMP280;48683;48.084;17.272;2023-05-07T04:40:06;100483.16;;;13.04
62611;BMP280;48683;48.084;17.272;2023-05-07T04:42:32;100477.72;;;13.11
62611;BMP280;48683;48.084;17.272;2023-05-07T04:44:58;100489.56;;;13.28
62611;BMP280;48683;48.084;17.272;2023-05-07T04:47:23;100486.50;;;13.26
62611;BMP280;48683;48.084;17.272;2023-05-07T04:49:48;100498.03;;;13.30
62611;BMP280;48683;48.084;17.272;2023-05-07T04:52:14;100497.22;;;13.37
62611;BMP280;48683;48.084;17.272;2023-05-07T04:54:40;100510.59;;;13.51
62611;BMP280;48683;48.084;17.272;2023-05-07T04:57:05;100513.97;;;13.62
62611;BMP280;48683;48.084;17.272;2023-05-07T04:59:32;100520.84;;;13.70
62611;BMP280;48683;48.084;17.272;2023-05-07T05:01:57;100523.91;;;13.72
62611;BMP280;48683;48.084;17.272;2023-05-07T05:04:23;100538.47;;;13.82
62611;BMP280;48683;48.084;17.272;2023-05-07T05:06:48;100534.53;;;13.90
62611;BMP280;48683;48.084;17.272;2023-05-07T05:09:13;100534.50;;;13.93
62611;BMP280;48683;48.084;17.272;2023-05-07T05:11:40;100538.69;;;14.01
62611;BMP280;48683;48.084;17.272;2023-05-07T05:14:05;100533.22;;;14.08
62611;BMP280;48683;48.084;17.272;2023-05-07T05:16:30;100531.22;;;14.16
62611;BMP280;48683;48.084;17.272;2023-05-07T05:18:56;100523.75;;;14.31
62611;BMP280;48683;48.084;17.272;2023-05-07T05:21:21;100526.00;;;14.39
62611;BMP280;48683;48.084;17.272;2023-05-07T05:23:47;100526.69;;;14.47
62611;BMP280;48683;48.084;17.272;2023-05-07T05:26:12;100535.38;;;14.61
62611;BMP280;48683;48.084;17.272;2023-05-07T05:28:38;100537.66;;;14.66
62611;BMP280;48683;48.084;17.272;2023-05-07T05:31:04;100540.97;;;14.78
62611;BMP280;48683;48.084;17.272;2023-05-07T05:33:30;100539.31;;;14.87
62611;BMP280;48683;48.084;17.272;2023-05-07T05:35:55;100543.34;;;15.02
62611;BMP280;48683;48.084;17.272;2023-05-07T05:38:20;100537.22;;;14.98
62611;BMP280;48683;48.084;17.272;2023-05-07T05:40:46;100537.75;;;15.16
62611;BMP280;48683;48.084;17.272;2023-05-07T05:43:11;100542.34;;;15.19
62611;BMP280;48683;48.084;17.272;2023-05-07T05:45:37;100545.31;;;15.29
62611;BMP280;48683;48.084;17.272;2023-05-07T05:48:02;100544.94;;;15.27
62611;BMP280;48683;48.084;17.272;2023-05-07T05:50:28;100548.09;;;15.25
62611;BMP280;48683;48.084;17.272;2023-05-07T05:52:53;100538.47;;;15.20
62611;BMP280;48683;48.084;17.272;2023-05-07T05:55:19;100548.75;;;15.33
62611;BMP280;48683;48.084;17.272;2023-05-07T05:57:45;100542.09;;;15.37
62611;BMP280;48683;48.084;17.272;2023-05-07T06:00:10;100552.41;;;15.46
62611;BMP280;48683;48.084;17.272;2023-05-07T06:02:36;100550.44;;;15.50
62611;BMP280;48683;48.084;17.272;2023-05-07T06:05:02;100554.56;;;15.58
62611;BMP280;48683;48.084;17.272;2023-05-07T06:07:28;100547.34;;;15.48
62611;BMP280;48683;48.084;17.272;2023-05-07T06:09:53;100558.94;;;15.48
62611;BMP280;48683;48.084;17.272;2023-05-07T06:12:18;100549.16;;;15.81
62611;BMP280;48683;48.084;17.272;2023-05-07T06:14:44;100545.09;;;15.93
62611;BMP280;48683;48.084;17.272;2023-05-07T06:17:09;100544.19;;;15.99
62611;BMP280;48683;48.084;17.272;2023-05-07T06:19:34;100548.50;;;16.20
62611;BMP280;48683;48.084;17.272;2023-05-07T06:22:00;100558.50;;;16.43
62611;BMP280;48683;48.084;17.272;2023-05-07T06:24:26;100552.47;;;16.35
62611;BMP280;48683;48.084;17.272;2023-05-07T06:26:52;100556.22;;;16.22
62611;BMP280;48683;48.084;17.272;2023-05-07T06:29:17;100565.16;;;16.38
62611;BMP280;48683;48.084;17.272;2023-05-07T06:31:43;100562.25;;;16.29
62611;BMP280;48683;48.084;17.272;2023-05-07T06:34:08;100571.44;;;16.35
62611;BMP280;48683;48.084;17.272;2023-05-07T06:36:34;100580.16;;;16.66
62611;BMP280;48683;48.084;17.272;2023-05-07T06:39:00;100576.97;;;16.71
62611;BMP280;48683;48.084;17.272;2023-05-07T06:41:25;100569.31;;;16.86
62611;BMP280;48683;48.084;17.272;2023-05-07T06:43:51;100569.09;;;16.96
62611;BMP280;48683;48.084;17.272;2023-05-07T06:46:16;100574.03;;;17.01
62611;BMP280;48683;48.084;17.272;2023-05-07T06:48:41;100565.84;;;17.21
62611;BMP280;48683;48.084;17.272;2023-05-07T06:51:07;100560.25;;;17.28
62611;BMP280;48683;48.084;17.272;2023-05-07T06:53:32;100563.31;;;17.30
62611;BMP280;48683;48.084;17.272;2023-05-07T06:56:17;100562.94;;;17.64
62611;BMP280;48683;48.084;17.272;2023-05-07T06:58:43;100563.63;;;17.68
62611;BMP280;48683;48.084;17.272;2023-05-07T07:01:08;100566.25;;;17.88
62611;BMP280;48683;48.084;17.272;2023-05-07T07:03:33;100567.34;;;17.90
62611;BMP280;48683;48.084;17.272;2023-05-07T07:05:58;100561.59;;;17.88
62611;BMP280;48683;48.084;17.272;2023-05-07T07:08:24;100563.84;;;17.90
62611;BMP280;48683;48.084;17.272;2023-05-07T07:10:49;100550.63;;;18.08
62611;BMP280;48683;48.084;17.272;2023-05-07T07:13:15;100559.88;;;17.94
62611;BMP280;48683;48.084;17.272;2023-05-07T07:15:40;100564.22;;;17.92
62611;BMP280;48683;48.084;17.272;2023-05-07T07:18:06;100559.81;;;17.82
62611;BMP280;48683;48.084;17.272;2023-05-07T07:20:31;100548.34;;;17.74
62611;BMP280;48683;48.084;17.272;2023-05-07T07:22:57;100567.34;;;17.90
62611;BMP280;48683;48.084;17.272;2023-05-07T07:25:22;100550.72;;;17.88
62611;BMP280;48683;48.084;17.272;2023-05-07T07:27:48;100559.66;;;17.73
62611;BMP280;48683;48.084;17.272;2023-05-07T07:30:14;100571.50;;;17.95
62611;BMP280;48683;48.084;17.272;2023-05-07T07:32:40;100570.41;;;17.92
62611;BMP280;48683;48.084;17.272;2023-05-07T07:35:06;100563.28;;;17.82
62611;BMP280;48683;48.084;17.272;2023-05-07T07:37:31;100552.59;;;17.59
62611;BMP280;48683;48.084;17.272;2023-05-07T07:39:56;100570.69;;;17.82
62611;BMP280;48683;48.084;17.272;2023-05-07T07:42:22;100560.75;;;17.75
62611;BMP280;48683;48.084;17.272;2023-05-07T07:44:47;100575.41;;;17.94
62611;BMP280;48683;48.084;17.272;2023-05-07T07:47:13;100567.78;;;17.89
62611;BMP280;48683;48.084;17.272;2023-05-07T07:49:38;100575.50;;;17.90
62611;BMP280;48683;48.084;17.272;2023-05-07T07:52:04;100576.16;;;18.11
62611;BMP280;48683;48.084;17.272;2023-05-07T07:54:29;100573.28;;;18.01
62611;BMP280;48683;48.084;17.272;2023-05-07T07:56:55;100584.03;;;18.21
62611;BMP280;48683;48.084;17.272;2023-05-07T07:59:20;100584.00;;;18.37
62611;BMP280;48683;48.084;17.272;2023-05-07T08:01:46;100583.00;;;18.31
62611;BMP280;48683;48.084;17.272;2023-05-07T08:04:13;100585.72;;;18.31
62611;BMP280;48683;48.084;17.272;2023-05-07T08:06:38;100577.75;;;18.24
62611;BMP280;48683;48.084;17.272;2023-05-07T08:09:04;100589.63;;;18.14
62611;BMP280;48683;48.084;17.272;2023-05-07T08:11:29;100581.47;;;18.30
62611;BMP280;48683;48.084;17.272;2023-05-07T08:13:54;100587.94;;;18.65
62611;BMP280;48683;48.084;17.272;2023-05-07T08:16:20;100586.75;;;18.66
62611;BMP280;48683;48.084;17.272;2023-05-07T08:18:46;100586.44;;;18.77
62611;BMP280;48683;48.084;17.272;2023-05-07T08:21:11;100588.78;;;19.04
62611;BMP280;48683;48.084;17.272;2023-05-07T08:23:36;100585.84;;;19.11
62611;BMP280;48683;48.084;17.272;2023-05-07T08:26:02;100569.31;;;19.05
62611;BMP280;48683;48.084;17.272;2023-05-07T08:28:27;100574.94;;;18.85
62611;BMP280;48683;48.084;17.272;2023-05-07T08:30:52;100575.06;;;18.94
62611;BMP280;48683;48.084;17.272;2023-05-07T08:33:18;100582.31;;;18.85
62611;BMP280;48683;48.084;17.272;2023-05-07T08:35:43;100574.31;;;19.19
62611;BMP280;48683;48.084;17.272;2023-05-07T08:38:08;100568.66;;;19.26
62611;BMP280;48683;48.084;17.272;2023-05-07T08:40:37;100583.34;;;19.41
62611;BMP280;48683;48.084;17.272;2023-05-07T08:43:05;100577.56;;;19.77
62611;BMP280;48683;48.084;17.272;2023-05-07T08:45:32;100568.00;;;19.73
62611;BMP280;48683;48.084;17.272;2023-05-07T08:48:02;100563.72;;;19.84
62611;BMP280;48683;48.084;17.272;2023-05-07T08:50:28;100562.22;;;19.83
62611;BMP280;48683;48.084;17.272;2023-05-07T08:52:53;100554.53;;;20.04
62611;BMP280;48683;48.084;17.272;2023-05-07T08:55:19;100563.56;;;20.01
62611;BMP280;48683;48.084;17.272;2023-05-07T08:57:45;100554.03;;;20.18
62611;BMP280;48683;48.084;17.272;2023-05-07T09:00:11;100552.38;;;20.33
62611;BMP280;48683;48.084;17.272;2023-05-07T09:02:37;100564.41;;;20.66
62611;BMP280;48683;48.084;17.272;2023-05-07T09:05:03;100556.66;;;20.87
62611;BMP280;48683;48.084;17.272;2023-05-07T09:07:30;100565.66;;;20.96
62611;BMP280;48683;48.084;17.272;2023-05-07T09:09:55;100565.66;;;20.96
62611;BMP280;48683;48.084;17.272;2023-05-07T09:12:22;100551.91;;;20.78
62611;BMP280;48683;48.084;17.272;2023-05-07T09:14:47;100559.88;;;20.42
62611;BMP280;48683;48.084;17.272;2023-05-07T09:17:14;100557.56;;;20.40
62611;BMP280;48683;48.084;17.272;2023-05-07T09:19:40;100545.38;;;20.75
62611;BMP280;48683;48.084;17.272;2023-05-07T09:22:06;100549.84;;;20.91
62611;BMP280;48683;48.084;17.272;2023-05-07T09:24:34;100550.53;;;21.04
62611;BMP280;48683;48.084;17.272;2023-05-07T09:27:02;100554.31;;;20.76
62611;BMP280;48683;48.084;17.272;2023-05-07T09:29:27;100556.63;;;20.56
62611;BMP280;48683;48.084;17.272;2023-05-07T09:32:01;100549.56;;;20.67
62611;BMP280;48683;48.084;17.272;2023-05-07T09:34:27;100551.16;;;20.56
62611;BMP280;48683;48.084;17.272;2023-05-07T09:36:53;100546.44;;;20.78
62611;BMP280;48683;48.084;17.272;2023-05-07T09:39:19;100552.44;;;21.16
62611;BMP280;48683;48.084;17.272;2023-05-07T09:41:48;100544.34;;;21.44
62611;BMP280;48683;48.084;17.272;2023-05-07T09:44:14;100532.91;;;21.27
62611;BMP280;48683;48.084;17.272;2023-05-07T09:46:42;100541.25;;;21.02
62611;BMP280;48683;48.084;17.272;2023-05-07T09:49:12;100533.28;;;20.85
62611;BMP280;48683;48.084;17.272;2023-05-07T09:51:59;100534.25;;;20.92
62611;BMP280;48683;48.084;17.272;2023-05-07T09:54:25;100531.03;;;20.84
62611;BMP280;48683;48.084;17.272;2023-05-07T09:56:52;100535.03;;;21.01
62611;BMP280;48683;48.084;17.272;2023-05-07T09:59:18;100534.94;;;21.45
62611;BMP280;48683;48.084;17.272;2023-05-07T10:01:45;100528.88;;;21.50
62611;BMP280;48683;48.084;17.272;2023-05-07T10:04:11;100521.84;;;21.30
62611;BMP280;48683;48.084;17.272;2023-05-07T10:06:37;100536.75;;;21.08
62611;BMP280;48683;48.084;17.272;2023-05-07T10:09:04;100536.84;;;20.95
62611;BMP280;48683;48.084;17.272;2023-05-07T10:11:33;100527.88;;;21.16
62611;BMP280;48683;48.084;17.272;2023-05-07T10:14:03;100535.25;;;21.47
62611;BMP280;48683;48.084;17.272;2023-05-07T10:16:32;100524.13;;;21.32
62611;BMP280;48683;48.084;17.272;2023-05-07T10:18:58;100520.50;;;21.35
62611;BMP280;48683;48.084;17.272;2023-05-07T10:21:24;100514.84;;;21.20
62611;BMP280;48683;48.084;17.272;2023-05-07T10:24:21;100518.72;;;21.50
62611;BMP280;48683;48.084;17.272;2023-05-07T10:26:53;100516.31;;;21.70
62611;BMP280;48683;48.084;17.272;2023-05-07T10:32:24;100509.78;;;21.59
62611;BMP280;48683;48.084;17.272;2023-05-07T10:35:11;100509.94;;;21.73
62611;BMP280;48683;48.084;17.272;2023-05-07T10:37:40;100499.97;;;21.98
62611;BMP280;48683;48.084;17.272;2023-05-07T10:40:06;100504.38;;;22.04
62611;BMP280;48683;48.084;17.272;2023-05-07T10:42:32;100515.72;;;21.75
62611;BMP280;48683;48.084;17.272;2023-05-07T10:44:57;100509.34;;;21.69
62611;BMP280;48683;48.084;17.272;2023-05-07T10:47:23;100506.31;;;21.76
62611;BMP280;48683;48.084;17.272;2023-05-07T10:52:14;100509.94;;;21.55
62611;BMP280;48683;48.084;17.272;2023-05-07T10:54:41;100506.91;;;21.71
62611;BMP280;48683;48.084;17.272;2023-05-07T10:59:57;100504.53;;;21.24
62611;BMP280;48683;48.084;17.272;2023-05-07T11:02:23;100502.13;;;21.26
62611;BMP280;48683;48.084;17.272;2023-05-07T11:05:23;100499.09;;;21.34
62611;BMP280;48683;48.084;17.272;2023-05-07T11:08:08;100506.25;;;21.40
62611;BMP280;48683;48.084;17.272;2023-05-07T11:10:53;100506.25;;;21.40
62611;BMP280;48683;48.084;17.272;2023-05-07T11:16:20;100508.03;;;22.01
62611;BMP280;48683;48.084;17.272;2023-05-07T11:18:48;100513.19;;;22.17
62611;BMP280;48683;48.084;17.272;2023-05-07T11:21:40;100509.94;;;22.46
62611;BMP280;48683;48.084;17.272;2023-05-07T11:24:07;100510.97;;;22.58
62611;BMP280;48683;48.084;17.272;2023-05-07T11:26:44;100496.13;;;22.41
62611;BMP280;48683;48.084;17.272;2023-05-07T11:31:39;100499.44;;;22.54
62611;BMP280;48683;48.084;17.272;2023-05-07T11:34:05;100499.66;;;22.23
62611;BMP280;48683;48.084;17.272;2023-05-07T11:36:32;100487.22;;;22.04
62611;BMP280;48683;48.084;17.272;2023-05-07T11:38:57;100491.00;;;22.24
62611;BMP280;48683;48.084;17.272;2023-05-07T11:41:33;100491.53;;;22.56
62611;BMP280;48683;48.084;17.272;2023-05-07T11:43:59;100485.03;;;22.44
62611;BMP280;48683;48.084;17.272;2023-05-07T11:46:25;100482.34;;;22.17
62611;BMP280;48683;48.084;17.272;2023-05-07T11:48:50;100477.00;;;22.22
62611;BMP280;48683;48.084;17.272;2023-05-07T11:51:19;100486.78;;;22.65
62611;BMP280;48683;48.084;17.272;2023-05-07T11:53:45;100486.53;;;22.96
62611;BMP280;48683;48.084;17.272;2023-05-07T11:56:12;100484.81;;;23.08
62611;BMP280;48683;48.084;17.272;2023-05-07T11:58:39;100478.78;;;23.28
62611;BMP280;48683;48.084;17.272;2023-05-07T12:01:06;100478.78;;;23.28
62611;BMP280;48683;48.084;17.272;2023-05-07T12:03:32;100479.59;;;23.52
62611;BMP280;48683;48.084;17.272;2023-05-07T12:05:59;100482.03;;;23.50
62611;BMP280;48683;48.084;17.272;2023-05-07T12:08:25;100484.03;;;22.84
62611;BMP280;48683;48.084;17.272;2023-05-07T12:10:50;100481.50;;;22.71
62611;BMP280;48683;48.084;17.272;2023-05-07T12:13:20;100485.75;;;22.63
62611;BMP280;48683;48.084;17.272;2023-05-07T12:18:11;100485.25;;;22.13
62611;BMP280;48683;48.084;17.272;2023-05-07T12:20:38;100482.34;;;22.17
62611;BMP280;48683;48.084;17.272;2023-05-07T12:23:04;100492.13;;;22.69
62611;BMP280;48683;48.084;17.272;2023-05-07T12:25:30;100486.50;;;22.73
62611;BMP280;48683;48.084;17.272;2023-05-07T12:27:56;100490.88;;;22.79
62611;BMP280;48683;48.084;17.272;2023-05-07T12:30:24;100488.81;;;23.07
62611;BMP280;48683;48.084;17.272;2023-05-07T12:32:53;100486.47;;;22.82
62611;BMP280;48683;48.084;17.272;2023-05-07T12:35:26;100491.28;;;22.36
62611;BMP280;48683;48.084;17.272;2023-05-07T12:37:59;100486.84;;;22.38
62611;BMP280;48683;48.084;17.272;2023-05-07T12:40:43;100492.31;;;22.38
62611;BMP280;48683;48.084;17.272;2023-05-07T12:43:18;100483.56;;;22.25
62611;BMP280;48683;48.084;17.272;2023-05-07T12:45:45;100478.66;;;22.38
62611;BMP280;48683;48.084;17.272;2023-05-07T12:48:11;100479.13;;;22.37
62611;BMP280;48683;48.084;17.272;2023-05-07T12:50:37;100488.97;;;22.52
62611;BMP280;48683;48.084;17.272;2023-05-07T12:53:04;100479.84;;;22.55
62611;BMP280;48683;48.084;17.272;2023-05-07T12:55:31;100476.03;;;22.53
62611;BMP280;48683;48.084;17.272;2023-05-07T12:58:00;100475.81;;;22.23
62611;BMP280;48683;48.084;17.272;2023-05-07T13:00:37;100465.34;;;22.04
62611;BMP280;48683;48.084;17.272;2023-05-07T13:03:02;100474.75;;;22.03
62611;BMP280;48683;48.084;17.272;2023-05-07T13:05:28;100476.13;;;22.16
62611;BMP280;48683;48.084;17.272;2023-05-07T13:07:56;100471.25;;;22.20
62611;BMP280;48683;48.084;17.272;2023-05-07T13:10:22;100463.22;;;21.99
62611;BMP280;48683;48.084;17.272;2023-05-07T13:12:48;100461.25;;;22.08
62611;BMP280;48683;48.084;17.272;2023-05-07T13:15:14;100461.38;;;22.23
62611;BMP280;48683;48.084;17.272;2023-05-07T13:17:40;100469.84;;;22.43
62611;BMP280;48683;48.084;17.272;2023-05-07T13:20:06;100468.97;;;22.28
62611;BMP280;48683;48.084;17.272;2023-05-07T13:22:33;100459.09;;;22.21
62611;BMP280;48683;48.084;17.272;2023-05-07T13:24:58;100449.38;;;22.02
62611;BMP280;48683;48.084;17.272;2023-05-07T13:27:23;100461.88;;;21.94
62611;BMP280;48683;48.084;17.272;2023-05-07T13:29:49;100456.22;;;22.16
62611;BMP280;48683;48.084;17.272;2023-05-07T13:32:14;100463.06;;;22.11
62611;BMP280;48683;48.084;17.272;2023-05-07T13:34:40;100456.38;;;22.03
62611;BMP280;48683;48.084;17.272;2023-05-07T13:37:06;100461.69;;;22.07
62611;BMP280;48683;48.084;17.272;2023-05-07T13:39:32;100460.47;;;21.90
62611;BMP280;48683;48.084;17.272;2023-05-07T13:41:58;100463.69;;;21.97
62611;BMP280;48683;48.084;17.272;2023-05-07T13:44:23;100465.63;;;22.15
62611;BMP280;48683;48.084;17.272;2023-05-07T13:46:48;100471.56;;;22.13
62611;BMP280;48683;48.084;17.272;2023-05-07T13:49:14;100459.41;;;22.23
62611;BMP280;48683;48.084;17.272;2023-05-07T13:51:39;100458.78;;;22.19
62611;BMP280;48683;48.084;17.272;2023-05-07T13:54:04;100469.56;;;22.32
62611;BMP280;48683;48.084;17.272;2023-05-07T13:56:30;100469.25;;;22.39
62611;BMP280;48683;48.084;17.272;2023-05-07T13:58:57;100474.91;;;22.17